sensor_id;sensor_type;location;lat;lon;timestamp;temperature;humidity
7684;DHT22;3884;48.616;12.872;2024-02-23T00:02:03;7.40;17.00
7684;DHT22;3884;48.616;12.872;2024-02-23T00:04:33;7.50;1.00
7684;DHT22;3884;48.616;12.872;2024-02-23T00:07:03;7.50;1.00
7684;DHT22;3884;48.616;12.872;2024-02-23T00:09:32;7.60;1.00
7684;DHT22;3884;48.616;12.872;2024-02-23T00:12:01;7.70;1.00
7684;DHT22;3884;48.616;12.872;2024-02-23T00:14:28;7.70;1.00
7684;DHT22;3884;48.616;12.872;2024-02-23T00:16:56;7.70;1.00
7684;DHT22;3884;48.616;12.872;2024-02-23T00:19:24;7.70;1.00
7684;DHT22;3884;48.616;12.872;2024-02-23T00:21:51;7.60;1.00
7684;DHT22;3884;48.616;12.872;2024-02-23T00:24:18;7.60;1.00
7684;DHT22;3884;48.616;12.872;2024-02-23T00:26:47;7.60;1.00
7684;DHT22;3884;48.616;12.872;2024-02-23T00:29:17;7.50;1.00
7684;DHT22;3884;48.616;12.872;2024-02-23T00:31:45;7.50;1.00
7684;DHT22;3884;48.616;12.872;2024-02-23T00:34:12;7.50;1.00
7684;DHT22;3884;48.616;12.872;2024-02-23T00:36:40;7.60;1.00
7684;DHT22;3884;48.616;12.872;2024-02-23T00:39:08;9.00;1.00
7684;DHT22;3884;48.616;12.872;2024-02-23T00:41:34;7.80;1.00
7684;DHT22;3884;48.616;12.872;2024-02-23T00:44:02;7.80;1.00
7684;DHT22;3884;48.616;12.872;2024-02-23T00:46:30;7.90;1.00
7684;DHT22;3884;48.616;12.872;2024-02-23T00:48:57;7.90;1.00
7684;DHT22;3884;48.616;12.872;2024-02-23T00:51:24;7.90;1.00
7684;DHT22;3884;48.616;12.872;2024-02-23T00:53:50;7.90;1.00
7684;DHT22;3884;48.616;12.872;2024-02-23T00:56:17;7.90;1.00
7684;DHT22;3884;48.616;12.872;2024-02-23T00:58:44;7.90;1.00
7684;DHT22;3884;48.616;12.872;2024-02-23T01:01:11;7.90;1.00
7684;DHT22;3884;48.616;12.872;2024-02-23T01:03:39;7.90;1.00
7684;DHT22;3884;48.616;12.872;2024-02-23T01:06:06;8.00;1.00
7684;DHT22;3884;48.616;12.872;2024-02-23T01:08:33;7.90;1.00
7684;DHT22;3884;48.616;12.872;2024-02-23T01:11:01;8.00;1.00
7684;DHT22;3884;48.616;12.872;2024-02-23T01:13:28;8.00;1.00
7684;DHT22;3884;48.616;12.872;2024-02-23T01:15:55;7.90;1.00
7684;DHT22;3884;48.616;12.872;2024-02-23T01:18:22;8.00;1.00
7684;DHT22;3884;48.616;12.872;2024-02-23T01:20:51;7.90;1.00
7684;DHT22;3884;48.616;12.872;2024-02-23T01:23:18;8.00;1.00
7684;DHT22;3884;48.616;12.872;2024-02-23T01:25:45;8.10;1.00
7684;DHT22;3884;48.616;12.872;2024-02-23T01:28:12;8.00;1.00
7684;DHT22;3884;48.616;12.872;2024-02-23T01:30:39;8.00;1.00
7684;DHT22;3884;48.616;12.872;2024-02-23T01:33:06;8.00;1.00
7684;DHT22;3884;48.616;12.872;2024-02-23T01:35:33;8.10;99.90
7684;DHT22;3884;48.616;12.872;2024-02-23T01:38:11;8.10;99.90
7684;DHT22;3884;48.616;12.872;2024-02-23T01:40:44;8.20;72.80
7684;DHT22;3884;48.616;12.872;2024-02-23T01:43:12;8.20;1.00
7684;DHT22;3884;48.616;12.872;2024-02-23T01:45:39;8.20;1.00
7684;DHT22;3884;48.616;12.872;2024-02-23T01:48:07;8.20;99.90
7684;DHT22;3884;48.616;12.872;2024-02-23T01:50:34;8.20;99.90
7684;DHT22;3884;48.616;12.872;2024-02-23T01:53:04;8.20;9.40
7684;DHT22;3884;48.616;12.872;2024-02-23T01:55:32;8.20;99.90
7684;DHT22;3884;48.616;12.872;2024-02-23T01:58:00;8.20;1.00
7684;DHT22;3884;48.616;12.872;2024-02-23T02:00:28;8.10;1.00
7684;DHT22;3884;48.616;12.872;2024-02-23T02:02:56;8.10;99.90
7684;DHT22;3884;48.616;12.872;2024-02-23T02:05:24;8.10;1.00
7684;DHT22;3884;48.616;12.872;2024-02-23T02:07:55;8.10;99.90
7684;DHT22;3884;48.616;12.872;2024-02-23T02:10:27;8.10;99.90
7684;DHT22;3884;48.616;12.872;2024-02-23T02:13:03;8.10;99.90
7684;DHT22;3884;48.616;12.872;2024-02-23T02:15:31;8.10;9.70
7684;DHT22;3884;48.616;12.872;2024-02-23T02:18:00;8.00;99.90
7684;DHT22;3884;48.616;12.872;2024-02-23T02:20:32;8.00;1.00
7684;DHT22;3884;48.616;12.872;2024-02-23T02:23:02;8.00;99.90
7684;DHT22;3884;48.616;12.872;2024-02-23T02:25:35;8.00;1.00
7684;DHT22;3884;48.616;12.872;2024-02-23T02:28:06;7.90;99.90
7684;DHT22;3884;48.616;12.872;2024-02-23T02:30:33;7.90;99.90
7684;DHT22;3884;48.616;12.872;2024-02-23T02:33:01;7.90;99.90
7684;DHT22;3884;48.616;12.872;2024-02-23T02:35:30;7.90;1.00
7684;DHT22;3884;48.616;12.872;2024-02-23T02:37:59;7.90;1.00
7684;DHT22;3884;48.616;12.872;2024-02-23T02:40:31;7.90;99.90
7684;DHT22;3884;48.616;12.872;2024-02-23T02:43:05;7.70;99.90
7684;DHT22;3884;48.616;12.872;2024-02-23T02:45:40;7.90;1.00
7684;DHT22;3884;48.616;12.872;2024-02-23T02:48:07;7.80;1.00
7684;DHT22;3884;48.616;12.872;2024-02-23T02:50:36;7.80;29.40
7684;DHT22;3884;48.616;12.872;2024-02-23T02:53:07;7.90;7.10
7684;DHT22;3884;48.616;12.872;2024-02-23T02:55:48;7.80;1.00
7684;DHT22;3884;48.616;12.872;2024-02-23T02:58:20;7.80;99.90
7684;DHT22;3884;48.616;12.872;2024-02-23T03:00:51;7.80;1.00
7684;DHT22;3884;48.616;12.872;2024-02-23T03:03:23;7.70;55.50
7684;DHT22;3884;48.616;12.872;2024-02-23T03:05:51;7.70;99.90
7684;DHT22;3884;48.616;12.872;2024-02-23T03:08:21;7.60;1.00
7684;DHT22;3884;48.616;12.872;2024-02-23T03:11:03;7.70;1.00
7684;DHT22;3884;48.616;12.872;2024-02-23T03:13:32;7.70;99.90
7684;DHT22;3884;48.616;12.872;2024-02-23T03:16:04;7.60;1.00
7684;DHT22;3884;48.616;12.872;2024-02-23T03:18:35;7.30;99.90
7684;DHT22;3884;48.616;12.872;2024-02-23T03:21:06;7.10;1.00
7684;DHT22;3884;48.616;12.872;2024-02-23T03:23:35;6.90;52.30
7684;DHT22;3884;48.616;12.872;2024-02-23T03:26:03;6.80;1.00
7684;DHT22;3884;48.616;12.872;2024-02-23T03:28:31;6.90;1.00
7684;DHT22;3884;48.616;12.872;2024-02-23T03:31:03;6.50;1.00
7684;DHT22;3884;48.616;12.872;2024-02-23T03:33:33;6.50;1.00
7684;DHT22;3884;48.616;12.872;2024-02-23T03:36:04;6.50;99.90
7684;DHT22;3884;48.616;12.872;2024-02-23T03:38:31;6.30;1.00
7684;DHT22;3884;48.616;12.872;2024-02-23T03:40:59;6.30;96.40
7684;DHT22;3884;48.616;12.872;2024-02-23T03:43:26;6.20;99.90
7684;DHT22;3884;48.616;12.872;2024-02-23T03:45:55;6.10;1.00
7684;DHT22;3884;48.616;12.872;2024-02-23T03:48:21;6.10;1.00
7684;DHT22;3884;48.616;12.872;2024-02-23T03:50:48;6.10;1.00
7684;DHT22;3884;48.616;12.872;2024-02-23T03:53:15;6.10;1.00
7684;DHT22;3884;48.616;12.872;2024-02-23T03:55:42;6.10;63.70
7684;DHT22;3884;48.616;12.872;2024-02-23T03:58:09;6.10;99.90
7684;DHT22;3884;48.616;12.872;2024-02-23T04:00:36;6.20;1.00
7684;DHT22;3884;48.616;12.872;2024-02-23T04:03:06;6.10;99.90
7684;DHT22;3884;48.616;12.872;2024-02-23T04:05:36;6.10;89.50
7684;DHT22;3884;48.616;12.872;2024-02-23T04:08:04;6.10;99.90
7684;DHT22;3884;48.616;12.872;2024-02-23T04:10:31;6.10;1.00
7684;DHT22;3884;48.616;12.872;2024-02-23T04:12:59;6.10;1.00
7684;DHT22;3884;48.616;12.872;2024-02-23T04:15:26;6.10;1.00
7684;DHT22;3884;48.616;12.872;2024-02-23T04:17:53;6.10;13.30
7684;DHT22;3884;48.616;12.872;2024-02-23T04:20:23;6.10;1.00
7684;DHT22;3884;48.616;12.872;2024-02-23T04:22:50;6.10;1.00
7684;DHT22;3884;48.616;12.872;2024-02-23T04:25:17;6.10;1.00
7684;DHT22;3884;48.616;12.872;2024-02-23T04:27:45;6.10;1.00
7684;DHT22;3884;48.616;12.872;2024-02-23T04:30:13;6.20;1.00
7684;DHT22;3884;48.616;12.872;2024-02-23T04:32:40;6.10;99.90
7684;DHT22;3884;48.616;12.872;2024-02-23T04:35:08;6.10;99.90
7684;DHT22;3884;48.616;12.872;2024-02-23T04:37:36;6.10;1.00
7684;DHT22;3884;48.616;12.872;2024-02-23T04:40:04;6.10;1.00
7684;DHT22;3884;48.616;12.872;2024-02-23T04:42:32;6.10;1.00
7684;DHT22;3884;48.616;12.872;2024-02-23T04:44:58;6.10;1.00
7684;DHT22;3884;48.616;12.872;2024-02-23T04:47:26;6.10;99.90
7684;DHT22;3884;48.616;12.872;2024-02-23T04:49:52;6.10;1.00
7684;DHT22;3884;48.616;12.872;2024-02-23T04:52:20;6.00;1.00
7684;DHT22;3884;48.616;12.872;2024-02-23T04:54:49;6.10;1.00
7684;DHT22;3884;48.616;12.872;2024-02-23T04:57:17;6.00;99.90
7684;DHT22;3884;48.616;12.872;2024-02-23T04:59:44;6.00;99.90
7684;DHT22;3884;48.616;12.872;2024-02-23T05:02:11;6.00;1.00
7684;DHT22;3884;48.616;12.872;2024-02-23T05:04:38;6.00;99.90
7684;DHT22;3884;48.616;12.872;2024-02-23T05:07:06;6.00;1.00
7684;DHT22;3884;48.616;12.872;2024-02-23T05:09:34;6.00;1.00
7684;DHT22;3884;48.616;12.872;2024-02-23T05:12:03;6.00;1.00
7684;DHT22;3884;48.616;12.872;2024-02-23T05:14:30;5.90;1.00
7684;DHT22;3884;48.616;12.872;2024-02-23T05:16:57;5.90;1.00
7684;DHT22;3884;48.616;12.872;2024-02-23T05:19:24;5.90;1.00
7684;DHT22;3884;48.616;12.872;2024-02-23T05:21:52;5.90;1.00
7684;DHT22;3884;48.616;12.872;2024-02-23T05:24:19;5.90;1.00
7684;DHT22;3884;48.616;12.872;2024-02-23T05:26:46;5.90;1.00
7684;DHT22;3884;48.616;12.872;2024-02-23T05:29:15;5.90;1.00
7684;DHT22;3884;48.616;12.872;2024-02-23T05:31:46;5.80;1.00
7684;DHT22;3884;48.616;12.872;2024-02-23T05:34:13;5.80;8.30
7684;DHT22;3884;48.616;12.872;2024-02-23T05:36:40;5.80;1.00
7684;DHT22;3884;48.616;12.872;2024-02-23T05:39:07;5.80;1.00
7684;DHT22;3884;48.616;12.872;2024-02-23T05:41:35;5.80;1.00
7684;DHT22;3884;48.616;12.872;2024-02-23T05:44:03;5.90;99.90
7684;DHT22;3884;48.616;12.872;2024-02-23T05:46:32;5.80;99.90
7684;DHT22;3884;48.616;12.872;2024-02-23T05:49:00;5.80;1.00
7684;DHT22;3884;48.616;12.872;2024-02-23T05:51:28;5.70;99.90
7684;DHT22;3884;48.616;12.872;2024-02-23T05:53:55;5.70;99.90
7684;DHT22;3884;48.616;12.872;2024-02-23T05:56:22;5.70;99.90
7684;DHT22;3884;48.616;12.872;2024-02-23T05:58:50;5.70;1.00
7684;DHT22;3884;48.616;12.872;2024-02-23T06:01:17;5.70;99.90
7684;DHT22;3884;48.616;12.872;2024-02-23T06:03:46;5.70;1.00
7684;DHT22;3884;48.616;12.872;2024-02-23T06:06:13;5.70;99.90
7684;DHT22;3884;48.616;12.872;2024-02-23T06:08:40;5.70;1.00
7684;DHT22;3884;48.616;12.872;2024-02-23T06:11:09;5.70;74.50
7684;DHT22;3884;48.616;12.872;2024-02-23T06:13:36;5.60;1.00
7684;DHT22;3884;48.616;12.872;2024-02-23T06:16:03;5.70;99.90
7684;DHT22;3884;48.616;12.872;2024-02-23T06:18:30;5.60;1.00
7684;DHT22;3884;48.616;12.872;2024-02-23T06:20:58;5.60;99.90
7684;DHT22;3884;48.616;12.872;2024-02-23T06:23:25;5.60;99.90
7684;DHT22;3884;48.616;12.872;2024-02-23T06:25:52;5.60;99.90
7684;DHT22;3884;48.616;12.872;2024-02-23T06:28:19;5.60;99.90
7684;DHT22;3884;48.616;12.872;2024-02-23T06:30:46;5.70;9.00
7684;DHT22;3884;48.616;12.872;2024-02-23T06:33:13;5.50;99.90
7684;DHT22;3884;48.616;12.872;2024-02-23T06:35:43;5.50;99.90
7684;DHT22;3884;48.616;12.872;2024-02-23T06:38:36;5.50;1.00
7684;DHT22;3884;48.616;12.872;2024-02-23T06:41:19;5.40;99.90
7684;DHT22;3884;48.616;12.872;2024-02-23T06:44:00;5.50;99.90
7684;DHT22;3884;48.616;12.872;2024-02-23T06:46:41;5.50;99.90
7684;DHT22;3884;48.616;12.872;2024-02-23T06:49:22;5.60;1.00
7684;DHT22;3884;48.616;12.872;2024-02-23T06:52:26;5.50;1.00
7684;DHT22;3884;48.616;12.872;2024-02-23T06:55:16;5.60;99.90
7684;DHT22;3884;48.616;12.872;2024-02-23T06:57:43;5.60;1.00
7684;DHT22;3884;48.616;12.872;2024-02-23T07:00:24;5.70;99.90
7684;DHT22;3884;48.616;12.872;2024-02-23T07:03:07;5.70;1.00
7684;DHT22;3884;48.616;12.872;2024-02-23T07:05:48;5.70;99.90
7684;DHT22;3884;48.616;12.872;2024-02-23T07:08:29;5.80;99.90
7684;DHT22;3884;48.616;12.872;2024-02-23T07:11:08;5.80;99.90
7684;DHT22;3884;48.616;12.872;2024-02-23T07:13:42;5.70;99.90
7684;DHT22;3884;48.616;12.872;2024-02-23T07:19:04;5.80;99.90
7684;DHT22;3884;48.616;12.872;2024-02-23T07:21:49;6.30;1.00
7684;DHT22;3884;48.616;12.872;2024-02-23T07:24:16;6.60;1.00
7684;DHT22;3884;48.616;12.872;2024-02-23T07:26:44;5.80;1.00
7684;DHT22;3884;48.616;12.872;2024-02-23T07:29:11;5.80;1.00
7684;DHT22;3884;48.616;12.872;2024-02-23T07:31:38;5.80;1.00
7684;DHT22;3884;48.616;12.872;2024-02-23T07:34:05;5.80;99.90
7684;DHT22;3884;48.616;12.872;2024-02-23T07:36:32;5.80;1.00
7684;DHT22;3884;48.616;12.872;2024-02-23T07:39:00;5.80;1.00
7684;DHT22;3884;48.616;12.872;2024-02-23T07:41:27;5.90;1.00
7684;DHT22;3884;48.616;12.872;2024-02-23T07:43:56;5.90;99.90
7684;DHT22;3884;48.616;12.872;2024-02-23T07:46:23;5.90;35.60
7684;DHT22;3884;48.616;12.872;2024-02-23T07:48:50;5.90;36.90
7684;DHT22;3884;48.616;12.872;2024-02-23T07:51:17;5.90;99.90
7684;DHT22;3884;48.616;12.872;2024-02-23T07:53:44;5.90;99.90
7684;DHT22;3884;48.616;12.872;2024-02-23T07:56:11;6.00;99.90
7684;DHT22;3884;48.616;12.872;2024-02-23T07:58:39;5.90;97.80
7684;DHT22;3884;48.616;12.872;2024-02-23T08:01:07;6.00;1.00
7684;DHT22;3884;48.616;12.872;2024-02-23T08:03:34;6.00;99.90
7684;DHT22;3884;48.616;12.872;2024-02-23T08:06:01;6.00;1.00
7684;DHT22;3884;48.616;12.872;2024-02-23T08:08:28;6.00;1.00
7684;DHT22;3884;48.616;12.872;2024-02-23T08:11:25;6.40;1.00
7684;DHT22;3884;48.616;12.872;2024-02-23T08:14:11;6.80;27.80
7684;DHT22;3884;48.616;12.872;2024-02-23T08:19:55;7.10;1.00
7684;DHT22;3884;48.616;12.872;2024-02-23T08:32:56;6.30;1.00
7684;DHT22;3884;48.616;12.872;2024-02-23T08:35:37;6.90;99.90
7684;DHT22;3884;48.616;12.872;2024-02-23T08:38:04;6.50;99.90
7684;DHT22;3884;48.616;12.872;2024-02-23T08:40:45;6.50;99.90
7684;DHT22;3884;48.616;12.872;2024-02-23T08:55:32;7.30;1.00
7684;DHT22;3884;48.616;12.872;2024-02-23T08:57:59;6.70;99.90
7684;DHT22;3884;48.616;12.872;2024-02-23T09:00:26;6.90;1.00
7684;DHT22;3884;48.616;12.872;2024-02-23T09:02:53;7.00;1.00
7684;DHT22;3884;48.616;12.872;2024-02-23T09:05:24;6.90;99.90
7684;DHT22;3884;48.616;12.872;2024-02-23T09:08:06;7.00;99.90
7684;DHT22;3884;48.616;12.872;2024-02-23T09:10:36;7.20;1.00
7684;DHT22;3884;48.616;12.872;2024-02-23T09:13:17;7.20;99.90
7684;DHT22;3884;48.616;12.872;2024-02-23T09:15:44;7.20;41.40
7684;DHT22;3884;48.616;12.872;2024-02-23T09:18:11;7.20;99.90
7684;DHT22;3884;48.616;12.872;2024-02-23T09:20:38;7.20;92.50
7684;DHT22;3884;48.616;12.872;2024-02-23T09:23:05;7.30;1.00
7684;DHT22;3884;48.616;12.872;2024-02-23T09:25:34;7.30;1.00
7684;DHT22;3884;48.616;12.872;2024-02-23T09:28:02;7.30;99.90
7684;DHT22;3884;48.616;12.872;2024-02-23T09:30:29;7.40;1.00
7684;DHT22;3884;48.616;12.872;2024-02-23T09:32:56;7.30;1.00
7684;DHT22;3884;48.616;12.872;2024-02-23T09:35:23;7.40;67.70
7684;DHT22;3884;48.616;12.872;2024-02-23T09:37:50;7.40;1.00
7684;DHT22;3884;48.616;12.872;2024-02-23T09:40:18;7.40;1.00
7684;DHT22;3884;48.616;12.872;2024-02-23T09:42:54;7.40;99.90
7684;DHT22;3884;48.616;12.872;2024-02-23T09:45:23;7.40;99.90
7684;DHT22;3884;48.616;12.872;2024-02-23T09:47:56;7.30;99.90
7684;DHT22;3884;48.616;12.872;2024-02-23T09:50:24;7.40;99.90
7684;DHT22;3884;48.616;12.872;2024-02-23T09:52:51;7.30;99.90
7684;DHT22;3884;48.616;12.872;2024-02-23T09:55:21;7.40;99.90
7684;DHT22;3884;48.616;12.872;2024-02-23T09:57:55;7.40;99.90
7684;DHT22;3884;48.616;12.872;2024-02-23T10:00:25;7.40;99.90
7684;DHT22;3884;48.616;12.872;2024-02-23T10:02:54;7.40;99.90
7684;DHT22;3884;48.616;12.872;2024-02-23T10:05:23;7.40;99.90
7684;DHT22;3884;48.616;12.872;2024-02-23T10:08:07;7.50;99.90
7684;DHT22;3884;48.616;12.872;2024-02-23T10:10:34;7.40;99.90
7684;DHT22;3884;48.616;12.872;2024-02-23T10:13:03;7.40;99.90
7684;DHT22;3884;48.616;12.872;2024-02-23T10:15:30;7.40;99.90
7684;DHT22;3884;48.616;12.872;2024-02-23T10:17:57;7.30;99.90
7684;DHT22;3884;48.616;12.872;2024-02-23T10:20:24;7.30;99.90
7684;DHT22;3884;48.616;12.872;2024-02-23T10:22:51;7.30;99.90
7684;DHT22;3884;48.616;12.872;2024-02-23T10:25:19;7.30;99.90
7684;DHT22;3884;48.616;12.872;2024-02-23T10:27:47;7.30;99.90
7684;DHT22;3884;48.616;12.872;2024-02-23T10:30:15;7.20;99.90
7684;DHT22;3884;48.616;12.872;2024-02-23T10:32:42;7.20;99.90
7684;DHT22;3884;48.616;12.872;2024-02-23T10:35:11;7.20;99.90
7684;DHT22;3884;48.616;12.872;2024-02-23T10:37:42;7.20;99.90
7684;DHT22;3884;48.616;12.872;2024-02-23T10:40:11;7.20;99.90
7684;DHT22;3884;48.616;12.872;2024-02-23T10:42:39;7.20;99.90
7684;DHT22;3884;48.616;12.872;2024-02-23T10:45:08;7.10;99.90
7684;DHT22;3884;48.616;12.872;2024-02-23T10:47:37;7.20;99.90
7684;DHT22;3884;48.616;12.872;2024-02-23T10:50:04;7.20;99.90
7684;DHT22;3884;48.616;12.872;2024-02-23T10:52:33;7.10;99.90
7684;DHT22;3884;48.616;12.872;2024-02-23T10:55:02;7.20;99.90
7684;DHT22;3884;48.616;12.872;2024-02-23T10:57:30;7.20;99.90
7684;DHT22;3884;48.616;12.872;2024-02-23T10:59:58;7.10;99.90
7684;DHT22;3884;48.616;12.872;2024-02-23T11:02:28;7.10;99.90
7684;DHT22;3884;48.616;12.872;2024-02-23T11:04:58;7.10;99.90
7684;DHT22;3884;48.616;12.872;2024-02-23T11:07:26;7.20;99.90
7684;DHT22;3884;48.616;12.872;2024-02-23T11:09:54;7.20;99.90
7684;DHT22;3884;48.616;12.872;2024-02-23T11:12:25;7.20;99.90
7684;DHT22;3884;48.616;12.872;2024-02-23T11:14:56;7.20;99.90
7684;DHT22;3884;48.616;12.872;2024-02-23T11:17:26;7.30;99.90
7684;DHT22;3884;48.616;12.872;2024-02-23T11:19:54;7.20;99.90
7684;DHT22;3884;48.616;12.872;2024-02-23T11:22:26;7.30;99.90
7684;DHT22;3884;48.616;12.872;2024-02-23T11:25:00;7.30;99.90
7684;DHT22;3884;48.616;12.872;2024-02-23T11:27:30;7.30;99.90
7684;DHT22;3884;48.616;12.872;2024-02-23T11:30:02;7.20;99.90
7684;DHT22;3884;48.616;12.872;2024-02-23T11:32:38;7.10;99.90
7684;DHT22;3884;48.616;12.872;2024-02-23T11:35:06;7.10;99.90
7684;DHT22;3884;48.616;12.872;2024-02-23T11:40:49;6.10;99.90
7684;DHT22;3884;48.616;12.872;2024-02-23T11:43:18;5.70;1.00
7684;DHT22;3884;48.616;12.872;2024-02-23T11:45:47;5.50;99.90
7684;DHT22;3884;48.616;12.872;2024-02-23T11:48:13;5.30;1.00
7684;DHT22;3884;48.616;12.872;2024-02-23T11:50:41;5.30;99.90
7684;DHT22;3884;48.616;12.872;2024-02-23T11:53:10;5.20;1.00
7684;DHT22;3884;48.616;12.872;2024-02-23T11:59:14;5.20;99.90
7684;DHT22;3884;48.616;12.872;2024-02-23T12:01:56;5.20;99.90
7684;DHT22;3884;48.616;12.872;2024-02-23T12:04:31;5.10;1.00
7684;DHT22;3884;48.616;12.872;2024-02-23T12:07:15;5.10;99.90
7684;DHT22;3884;48.616;12.872;2024-02-23T12:09:43;5.00;1.00
7684;DHT22;3884;48.616;12.872;2024-02-23T12:12:12;5.00;1.00
7684;DHT22;3884;48.616;12.872;2024-02-23T12:15:01;5.10;99.90
7684;DHT22;3884;48.616;12.872;2024-02-23T12:17:30;5.10;99.90
7684;DHT22;3884;48.616;12.872;2024-02-23T12:19:59;5.10;1.00
7684;DHT22;3884;48.616;12.872;2024-02-23T12:22:31;5.00;99.90
7684;DHT22;3884;48.616;12.872;2024-02-23T12:25:02;5.10;99.90
7684;DHT22;3884;48.616;12.872;2024-02-23T12:27:29;5.10;99.90
7684;DHT22;3884;48.616;12.872;2024-02-23T12:30:02;5.20;1.00
7684;DHT22;3884;48.616;12.872;2024-02-23T12:32:30;5.10;1.00
7684;DHT22;3884;48.616;12.872;2024-02-23T12:34:58;5.10;1.00
7684;DHT22;3884;48.616;12.872;2024-02-23T12:37:25;5.10;1.00
7684;DHT22;3884;48.616;12.872;2024-02-23T12:39:52;5.10;1.00
7684;DHT22;3884;48.616;12.872;2024-02-23T12:42:21;5.10;99.90
7684;DHT22;3884;48.616;12.872;2024-02-23T12:44:51;5.10;1.00
7684;DHT22;3884;48.616;12.872;2024-02-23T12:47:19;5.20;99.90
7684;DHT22;3884;48.616;12.872;2024-02-23T12:49:50;5.20;47.20
7684;DHT22;3884;48.616;12.872;2024-02-23T12:52:31;5.20;1.00
7684;DHT22;3884;48.616;12.872;2024-02-23T12:54:58;5.20;1.00
7684;DHT22;3884;48.616;12.872;2024-02-23T12:57:25;5.20;35.30
7684;DHT22;3884;48.616;12.872;2024-02-23T12:59:52;5.10;99.90
7684;DHT22;3884;48.616;12.872;2024-02-23T13:02:21;5.00;99.90
7684;DHT22;3884;48.616;12.872;2024-02-23T13:04:54;5.10;1.00
7684;DHT22;3884;48.616;12.872;2024-02-23T13:07:21;5.00;1.00
7684;DHT22;3884;48.616;12.872;2024-02-23T13:09:48;5.00;99.90
7684;DHT22;3884;48.616;12.872;2024-02-23T13:12:15;4.90;1.00
7684;DHT22;3884;48.616;12.872;2024-02-23T13:14:42;5.00;1.00
7684;DHT22;3884;48.616;12.872;2024-02-23T13:17:09;5.20;1.00
7684;DHT22;3884;48.616;12.872;2024-02-23T13:19:37;5.20;1.00
7684;DHT22;3884;48.616;12.872;2024-02-23T13:22:06;5.30;1.00
7684;DHT22;3884;48.616;12.872;2024-02-23T13:24:33;5.30;1.00
7684;DHT22;3884;48.616;12.872;2024-02-23T13:27:02;5.50;1.00
7684;DHT22;3884;48.616;12.872;2024-02-23T13:29:33;5.30;1.00
7684;DHT22;3884;48.616;12.872;2024-02-23T13:32:00;5.20;1.00
7684;DHT22;3884;48.616;12.872;2024-02-23T13:34:28;5.10;1.00
7684;DHT22;3884;48.616;12.872;2024-02-23T13:37:01;5.10;99.90
7684;DHT22;3884;48.616;12.872;2024-02-23T13:39:29;5.20;1.00
7684;DHT22;3884;48.616;12.872;2024-02-23T13:41:58;5.20;1.00
7684;DHT22;3884;48.616;12.872;2024-02-23T13:44:35;5.30;95.20
7684;DHT22;3884;48.616;12.872;2024-02-23T13:47:14;5.20;1.00
7684;DHT22;3884;48.616;12.872;2024-02-23T13:49:41;5.30;1.00
7684;DHT22;3884;48.616;12.872;2024-02-23T13:52:18;5.30;1.00
7684;DHT22;3884;48.616;12.872;2024-02-23T13:54:46;5.20;1.00
7684;DHT22;3884;48.616;12.872;2024-02-23T13:57:13;5.10;99.90
7684;DHT22;3884;48.616;12.872;2024-02-23T13:59:41;5.10;99.90
7684;DHT22;3884;48.616;12.872;2024-02-23T14:02:07;5.00;1.00
7684;DHT22;3884;48.616;12.872;2024-02-23T14:04:34;5.10;99.90
7684;DHT22;3884;48.616;12.872;2024-02-23T14:07:04;5.00;99.90
7684;DHT22;3884;48.616;12.872;2024-02-23T14:09:33;5.00;1.00
7684;DHT22;3884;48.616;12.872;2024-02-23T14:12:14;5.10;1.00
7684;DHT22;3884;48.616;12.872;2024-02-23T14:14:43;5.00;99.90
7684;DHT22;3884;48.616;12.872;2024-02-23T14:17:10;5.00;1.00
7684;DHT22;3884;48.616;12.872;2024-02-23T14:19:38;5.00;1.00
7684;DHT22;3884;48.616;12.872;2024-02-23T14:22:08;5.00;1.00
7684;DHT22;3884;48.616;12.872;2024-02-23T14:24:46;5.00;99.90
7684;DHT22;3884;48.616;12.872;2024-02-23T14:27:15;5.10;1.00
7684;DHT22;3884;48.616;12.872;2024-02-23T14:29:45;5.10;99.90
7684;DHT22;3884;48.616;12.872;2024-02-23T14:32:17;5.10;99.90
7684;DHT22;3884;48.616;12.872;2024-02-23T14:34:45;5.10;1.00
7684;DHT22;3884;48.616;12.872;2024-02-23T14:37:12;5.00;99.90
7684;DHT22;3884;48.616;12.872;2024-02-23T14:39:39;5.10;1.00
7684;DHT22;3884;48.616;12.872;2024-02-23T14:42:13;5.20;1.00
7684;DHT22;3884;48.616;12.872;2024-02-23T14:44:40;5.30;1.00
7684;DHT22;3884;48.616;12.872;2024-02-23T14:47:11;5.30;1.00
7684;DHT22;3884;48.616;12.872;2024-02-23T14:49:39;5.30;99.90
7684;DHT22;3884;48.616;12.872;2024-02-23T14:52:07;5.40;75.90
7684;DHT22;3884;48.616;12.872;2024-02-23T14:54:34;5.30;99.90
7684;DHT22;3884;48.616;12.872;2024-02-23T14:57:01;5.30;1.00
7684;DHT22;3884;48.616;12.872;2024-02-23T14:59:30;5.40;1.00
7684;DHT22;3884;48.616;12.872;2024-02-23T15:02:01;5.50;99.90
7684;DHT22;3884;48.616;12.872;2024-02-23T15:04:28;5.40;1.00
7684;DHT22;3884;48.616;12.872;2024-02-23T15:06:55;5.40;1.00
7684;DHT22;3884;48.616;12.872;2024-02-23T15:09:22;5.30;99.90
7684;DHT22;3884;48.616;12.872;2024-02-23T15:11:49;5.30;94.10
7684;DHT22;3884;48.616;12.872;2024-02-23T15:14:17;5.40;1.00
7684;DHT22;3884;48.616;12.872;2024-02-23T15:16:45;5.40;1.00
7684;DHT22;3884;48.616;12.872;2024-02-23T15:19:12;5.40;1.00
7684;DHT22;3884;48.616;12.872;2024-02-23T15:21:39;5.40;1.00
7684;DHT22;3884;48.616;12.872;2024-02-23T15:24:06;5.30;99.90
7684;DHT22;3884;48.616;12.872;2024-02-23T15:26:34;5.30;99.90
7684;DHT22;3884;48.616;12.872;2024-02-23T15:29:01;5.30;1.00
7684;DHT22;3884;48.616;12.872;2024-02-23T15:31:30;5.10;1.00
7684;DHT22;3884;48.616;12.872;2024-02-23T15:34:01;5.20;1.00
7684;DHT22;3884;48.616;12.872;2024-02-23T15:36:29;5.20;1.00
7684;DHT22;3884;48.616;12.872;2024-02-23T15:38:57;5.20;99.90
7684;DHT22;3884;48.616;12.872;2024-02-23T15:41:26;5.20;99.90
7684;DHT22;3884;48.616;12.872;2024-02-23T15:43:53;5.10;99.90
7684;DHT22;3884;48.616;12.872;2024-02-23T15:46:22;5.10;1.00
7684;DHT22;3884;48.616;12.872;2024-02-23T15:48:50;5.10;99.90
7684;DHT22;3884;48.616;12.872;2024-02-23T15:51:21;5.00;99.90
7684;DHT22;3884;48.616;12.872;2024-02-23T15:53:51;5.00;99.90
7684;DHT22;3884;48.616;12.872;2024-02-23T15:56:21;5.00;99.90
7684;DHT22;3884;48.616;12.872;2024-02-23T15:58:50;5.00;99.90
7684;DHT22;3884;48.616;12.872;2024-02-23T16:01:18;4.90;99.90
7684;DHT22;3884;48.616;12.872;2024-02-23T16:03:52;4.90;1.00
7684;DHT22;3884;48.616;12.872;2024-02-23T16:06:26;5.00;1.00
7684;DHT22;3884;48.616;12.872;2024-02-23T16:08:59;4.90;99.90
7684;DHT22;3884;48.616;12.872;2024-02-23T16:11:28;4.90;1.00
7684;DHT22;3884;48.616;12.872;2024-02-23T16:13:57;4.90;1.00
7684;DHT22;3884;48.616;12.872;2024-02-23T16:16:33;4.80;99.90
7684;DHT22;3884;48.616;12.872;2024-02-23T16:19:18;4.80;1.00
7684;DHT22;3884;48.616;12.872;2024-02-23T17:41:48;4.00;1.00
7684;DHT22;3884;48.616;12.872;2024-02-23T17:44:15;3.90;1.00
7684;DHT22;3884;48.616;12.872;2024-02-23T17:46:45;3.90;94.20
7684;DHT22;3884;48.616;12.872;2024-02-23T17:49:25;3.90;1.00
7684;DHT22;3884;48.616;12.872;2024-02-23T17:52:06;3.90;38.00
7684;DHT22;3884;48.616;12.872;2024-02-23T17:54:33;3.80;1.00
7684;DHT22;3884;48.616;12.872;2024-02-23T17:57:17;3.80;1.00
7684;DHT22;3884;48.616;12.872;2024-02-23T17:59:58;3.80;99.90
7684;DHT22;3884;48.616;12.872;2024-02-23T18:02:41;3.80;99.90
7684;DHT22;3884;48.616;12.872;2024-02-23T18:05:24;3.80;99.90
7684;DHT22;3884;48.616;12.872;2024-02-23T18:07:53;3.70;99.90
7684;DHT22;3884;48.616;12.872;2024-02-23T18:10:20;3.70;99.90
7684;DHT22;3884;48.616;12.872;2024-02-23T18:13:18;3.70;99.90
7684;DHT22;3884;48.616;12.872;2024-02-23T18:15:46;3.70;1.00
7684;DHT22;3884;48.616;12.872;2024-02-23T18:18:30;3.60;1.00
7684;DHT22;3884;48.616;12.872;2024-02-23T18:21:14;3.60;45.60
7684;DHT22;3884;48.616;12.872;2024-02-23T18:23:58;3.70;99.90